createdAt,value
2018-08-28T00:00:45.508Z,1010.70
2018-08-28T00:01:45.535Z,1010.69
2018-08-28T00:02:45.563Z,1010.71
2018-08-28T00:03:45.592Z,1010.67
2018-08-28T00:04:45.623Z,1010.74
2018-08-28T00:05:45.647Z,1010.68
2018-08-28T00:06:45.680Z,1010.71
2018-08-28T00:07:45.707Z,1010.73
2018-08-28T00:08:45.785Z,1010.71
2018-08-28T00:09:45.763Z,1010.71
2018-08-28T00:10:45.794Z,1010.70
2018-08-28T00:11:45.822Z,1010.72
2018-08-28T00:12:45.851Z,1010.72
2018-08-28T00:13:45.879Z,1010.70
2018-08-28T00:14:45.909Z,1010.68
2018-08-28T00:15:45.935Z,1010.71
2018-08-28T00:16:45.966Z,1010.69
2018-08-28T00:17:45.994Z,1010.67
2018-08-28T00:18:46.019Z,1010.66
2018-08-28T00:19:46.049Z,1010.61
2018-08-28T00:20:46.080Z,1010.62
2018-08-28T00:21:46.107Z,1010.69
2018-08-28T00:22:46.132Z,1010.70
2018-08-28T00:23:46.167Z,1010.69
2018-08-28T00:24:46.195Z,1010.71
2018-08-28T00:25:46.245Z,1010.72
2018-08-28T00:26:46.248Z,1010.74
2018-08-28T00:27:46.278Z,1010.76
2018-08-28T00:28:46.307Z,1010.77
2018-08-28T00:29:46.335Z,1010.75
2018-08-28T00:30:46.367Z,1010.77
2018-08-28T00:31:46.392Z,1010.80
2018-08-28T00:32:46.424Z,1010.81
2018-08-28T00:33:46.449Z,1010.85
2018-08-28T00:34:46.479Z,1010.81
2018-08-28T00:35:46.504Z,1010.83
2018-08-28T00:36:46.539Z,1010.86
2018-08-28T00:37:46.570Z,1010.84
2018-08-28T00:38:46.591Z,1010.86
2018-08-28T00:39:46.624Z,1010.89
2018-08-28T00:40:46.651Z,1010.86
2018-08-28T00:41:46.680Z,1010.87
2018-08-28T00:42:46.706Z,1010.87
2018-08-28T00:43:46.737Z,1010.86
2018-08-28T00:44:46.767Z,1010.91
2018-08-28T00:45:46.796Z,1010.86
2018-08-28T00:46:46.826Z,1010.88
2018-08-28T00:47:46.850Z,1010.89
2018-08-28T00:48:46.879Z,1010.90
2018-08-28T00:49:46.907Z,1010.92
2018-08-28T00:50:46.941Z,1010.90
2018-08-28T00:51:46.969Z,1010.89
2018-08-28T00:52:46.993Z,1010.89
2018-08-28T00:53:47.021Z,1010.89
2018-08-28T00:54:47.056Z,1010.89
2018-08-28T00:55:47.082Z,1010.95
2018-08-28T00:56:47.112Z,1010.91
2018-08-28T00:57:47.139Z,1010.94
2018-08-28T00:58:47.228Z,1010.96
2018-08-28T00:59:47.197Z,1010.92
2018-08-28T01:00:47.224Z,1010.93
2018-08-28T01:01:47.251Z,1011.00
2018-08-28T01:02:47.282Z,1010.96
2018-08-28T01:03:47.313Z,1010.94
2018-08-28T01:04:47.338Z,1010.98
2018-08-28T01:05:47.365Z,1010.99
2018-08-28T01:06:47.396Z,1010.97
2018-08-28T01:07:47.426Z,1010.97
2018-08-28T01:08:47.452Z,1010.94
2018-08-28T01:09:47.481Z,1010.92
2018-08-28T01:10:47.514Z,1010.96
2018-08-28T01:11:47.541Z,1010.96
2018-08-28T01:12:47.569Z,1010.96
2018-08-28T01:13:47.595Z,1010.93
2018-08-28T01:14:47.711Z,1010.91
2018-08-28T01:15:47.654Z,1010.95
2018-08-28T01:16:47.683Z,1010.91
2018-08-28T01:17:47.712Z,1010.96
2018-08-28T01:18:47.738Z,1010.95
2018-08-28T01:19:47.766Z,1010.95
2018-08-28T01:20:47.796Z,1010.96
2018-08-28T01:21:47.826Z,1010.98
2018-08-28T01:22:47.852Z,1010.96
2018-08-28T01:23:47.887Z,1010.97
2018-08-28T01:24:47.912Z,1011.02
2018-08-28T01:25:47.938Z,1011.00
2018-08-28T01:26:47.969Z,1011.00
2018-08-28T01:27:47.998Z,1011.01
2018-08-28T01:28:48.027Z,1010.97
2018-08-28T01:29:48.055Z,1011.04
2018-08-28T01:30:48.080Z,1011.08
2018-08-28T01:31:48.110Z,1011.03
2018-08-28T01:32:48.141Z,1011.02
2018-08-28T01:33:48.165Z,1011.04
2018-08-28T01:34:48.197Z,1011.03
2018-08-28T01:35:48.226Z,1011.03
2018-08-28T01:36:48.253Z,1011.03
2018-08-28T01:37:48.283Z,1011.05
2018-08-28T01:38:48.310Z,1011.01
2018-08-28T01:39:48.342Z,1011.01
2018-08-28T01:40:48.365Z,1011.05
2018-08-28T01:41:48.399Z,1011.02
2018-08-28T01:42:48.426Z,1010.99
2018-08-28T01:43:48.454Z,1011.01
2018-08-28T01:44:48.482Z,1010.96
2018-08-28T01:45:48.515Z,1011.00
2018-08-28T01:46:48.539Z,1011.00
2018-08-28T01:47:48.567Z,1011.03
2018-08-28T01:48:48.598Z,1011.04
2018-08-28T01:49:48.627Z,1011.09
2018-08-28T01:50:48.653Z,1011.03
2018-08-28T01:51:48.684Z,1011.04
2018-08-28T01:52:48.712Z,1011.08
2018-08-28T01:53:48.742Z,1011.11
2018-08-28T01:54:48.767Z,1011.09
2018-08-28T01:55:48.799Z,1011.09
2018-08-28T01:56:48.826Z,1011.08
2018-08-28T01:57:48.855Z,1011.09
2018-08-28T01:58:48.886Z,1011.10
2018-08-28T01:59:48.910Z,1011.11
2018-08-28T02:00:48.939Z,1011.08
2018-08-28T02:01:48.967Z,1011.11
2018-08-28T02:02:48.998Z,1011.09
2018-08-28T02:03:49.025Z,1011.12
2018-08-28T02:04:49.057Z,1011.10
2018-08-28T02:05:49.079Z,1011.11
2018-08-28T02:06:49.110Z,1011.09
2018-08-28T02:07:49.139Z,1011.10
2018-08-28T02:08:49.169Z,1011.15
2018-08-28T02:09:49.198Z,1011.12
2018-08-28T02:10:49.227Z,1011.11
2018-08-28T02:11:49.255Z,1011.09
2018-08-28T02:12:49.284Z,1011.12
2018-08-28T02:13:49.313Z,1011.12
2018-08-28T02:14:49.346Z,1011.08
2018-08-28T02:15:49.368Z,1011.08
2018-08-28T02:16:49.398Z,1011.11
2018-08-28T02:17:49.431Z,1011.11
2018-08-28T02:18:49.454Z,1011.08
2018-08-28T02:19:49.484Z,1011.10
2018-08-28T02:20:49.511Z,1011.12
2018-08-28T02:21:49.541Z,1011.11
2018-08-28T02:22:49.570Z,1011.10
2018-08-28T02:23:49.598Z,1011.13
2018-08-28T02:24:49.628Z,1011.15
2018-08-28T02:25:49.655Z,1011.10
2018-08-28T02:26:49.685Z,1011.20
2018-08-28T02:27:49.717Z,1011.16
2018-08-28T02:28:49.743Z,1011.16
2018-08-28T02:29:49.769Z,1011.15
2018-08-28T02:30:49.797Z,1011.12
2018-08-28T02:31:49.829Z,1011.15
2018-08-28T02:32:49.859Z,1011.11
2018-08-28T02:33:49.884Z,1011.17
2018-08-28T02:34:49.917Z,1011.14
2018-08-28T02:35:49.944Z,1011.13
2018-08-28T02:36:49.972Z,1011.11
2018-08-28T02:37:49.998Z,1011.09
2018-08-28T02:38:50.029Z,1011.13
2018-08-28T02:39:50.056Z,1011.13
2018-08-28T02:40:50.085Z,1011.14
2018-08-28T02:41:50.116Z,1011.18
2018-08-28T02:42:50.141Z,1011.11
2018-08-28T02:43:50.171Z,1011.16
2018-08-28T02:44:50.202Z,1011.12
2018-08-28T02:45:50.227Z,1011.13
2018-08-28T02:46:50.255Z,1011.11
2018-08-28T02:47:50.287Z,1011.18
2018-08-28T02:48:50.317Z,1011.17
2018-08-28T02:49:50.343Z,1011.20
2018-08-28T02:50:50.371Z,1011.19
2018-08-28T02:51:50.401Z,1011.19
2018-08-28T02:52:50.432Z,1011.21
2018-08-28T02:53:50.456Z,1011.15
2018-08-28T02:54:50.486Z,1011.19
2018-08-28T02:55:50.514Z,1011.19
2018-08-28T02:56:50.543Z,1011.23
2018-08-28T02:57:50.574Z,1011.20
2018-08-28T02:58:50.599Z,1011.19
2018-08-28T02:59:50.629Z,1011.19
2018-08-28T03:00:50.660Z,1011.22
2018-08-28T03:01:50.685Z,1011.21
2018-08-28T03:02:50.718Z,1011.22
2018-08-28T03:03:50.746Z,1011.26
2018-08-28T03:04:50.773Z,1011.21
2018-08-28T03:05:50.802Z,1011.26
2018-08-28T03:06:50.828Z,1011.25
2018-08-28T03:07:50.859Z,1011.27
2018-08-28T03:08:50.887Z,1011.26
2018-08-28T03:09:50.918Z,1011.25
2018-08-28T03:10:50.946Z,1011.28
2018-08-28T03:11:50.971Z,1011.21
2018-08-28T03:12:51.002Z,1011.25
2018-08-28T03:13:51.031Z,1011.26
2018-08-28T03:14:51.059Z,1011.22
2018-08-28T03:15:51.138Z,1011.29
2018-08-28T03:16:51.115Z,1011.23
2018-08-28T03:17:51.143Z,1011.25
2018-08-28T03:18:51.172Z,1011.23
2018-08-28T03:19:51.205Z,1011.32
2018-08-28T03:20:51.231Z,1011.30
2018-08-28T03:21:51.261Z,1011.30
2018-08-28T03:22:51.286Z,1011.30
2018-08-28T03:23:51.313Z,1011.29
2018-08-28T03:24:51.344Z,1011.26
2018-08-28T03:25:51.374Z,1011.30
2018-08-28T03:26:51.401Z,1011.31
2018-08-28T03:27:51.432Z,1011.29
2018-08-28T03:28:51.496Z,1011.33
2018-08-28T03:29:51.486Z,1011.35
2018-08-28T03:30:51.519Z,1011.40
2018-08-28T03:31:51.543Z,1011.36
2018-08-28T03:32:51.574Z,1011.38
2018-08-28T03:33:51.603Z,1011.35
2018-08-28T03:34:51.634Z,1011.36
2018-08-28T03:35:51.660Z,1011.28
2018-08-28T03:36:51.688Z,1011.33
2018-08-28T03:37:51.719Z,1011.35
2018-08-28T03:38:51.744Z,1011.33
2018-08-28T03:39:51.776Z,1011.31
2018-08-28T03:40:51.805Z,1011.30
2018-08-28T03:41:51.832Z,1011.33
2018-08-28T03:42:51.864Z,1011.41
2018-08-28T03:43:51.889Z,1011.38
2018-08-28T03:44:52.004Z,1011.38
2018-08-28T03:45:51.949Z,1011.37
2018-08-28T03:46:51.988Z,1011.35
2018-08-28T03:47:52.004Z,1011.41
2018-08-28T03:48:52.036Z,1011.42
2018-08-28T03:49:52.064Z,1011.35
2018-08-28T03:50:52.090Z,1011.42
2018-08-28T03:51:52.122Z,1011.44
2018-08-28T03:52:52.150Z,1011.46
2018-08-28T03:53:52.195Z,1011.49
2018-08-28T03:54:52.206Z,1011.44
2018-08-28T03:55:52.235Z,1011.47
2018-08-28T03:56:52.266Z,1011.47
2018-08-28T03:57:52.295Z,1011.42
2018-08-28T03:58:52.322Z,1011.41
2018-08-28T03:59:52.353Z,1011.39
2018-08-28T04:00:52.381Z,1011.44
2018-08-28T04:01:52.408Z,1011.42
2018-08-28T04:02:52.441Z,1011.43
2018-08-28T04:03:52.465Z,1011.44
2018-08-28T04:04:52.500Z,1011.48
2018-08-28T04:05:52.522Z,1011.41
2018-08-28T04:06:52.551Z,1011.49
2018-08-28T04:07:52.580Z,1011.43
2018-08-28T04:08:52.610Z,1011.50
2018-08-28T04:09:52.641Z,1011.41
2018-08-28T04:10:52.667Z,1011.44
2018-08-28T04:11:52.695Z,1011.42
2018-08-28T04:12:52.726Z,1011.42
2018-08-28T04:13:52.753Z,1011.43
2018-08-28T04:14:52.782Z,1011.44
2018-08-28T04:15:52.815Z,1011.43
2018-08-28T04:16:52.880Z,1011.47
2018-08-28T04:17:52.868Z,1011.45
2018-08-28T04:18:52.901Z,1011.52
2018-08-28T04:19:52.931Z,1011.47
2018-08-28T04:20:52.957Z,1011.50
2018-08-28T04:21:52.987Z,1011.47
2018-08-28T04:22:53.012Z,1011.48
2018-08-28T04:23:53.044Z,1011.55
2018-08-28T04:24:53.074Z,1011.53
2018-08-28T04:25:53.104Z,1011.52
2018-08-28T04:26:53.128Z,1011.54
2018-08-28T04:27:53.156Z,1011.50
2018-08-28T04:28:53.188Z,1011.55
2018-08-28T04:29:53.215Z,1011.55
2018-08-28T04:30:53.302Z,1011.57
2018-08-28T04:31:53.274Z,1011.59
2018-08-28T04:32:53.302Z,1011.61
2018-08-28T04:33:53.329Z,1011.60
2018-08-28T04:34:53.357Z,1011.63
2018-08-28T04:35:53.388Z,1011.64
2018-08-28T04:36:53.414Z,1011.64
2018-08-28T04:37:53.442Z,1011.65
2018-08-28T04:38:53.473Z,1011.67
2018-08-28T04:39:53.504Z,1011.66
2018-08-28T04:40:53.530Z,1011.66
2018-08-28T04:41:53.602Z,1011.71
2018-08-28T04:42:53.588Z,1011.74
2018-08-28T04:43:53.615Z,1011.72
2018-08-28T04:44:53.648Z,1011.76
2018-08-28T04:45:53.680Z,1011.77
2018-08-28T04:46:53.705Z,1011.79
2018-08-28T04:47:53.730Z,1011.78
2018-08-28T04:48:53.791Z,1011.80
2018-08-28T04:49:53.787Z,1011.78
2018-08-28T04:50:53.819Z,1011.79
2018-08-28T04:51:53.847Z,1011.84
2018-08-28T04:52:53.875Z,1011.84
2018-08-28T04:53:53.906Z,1011.80
2018-08-28T04:54:53.945Z,1011.84
2018-08-28T04:55:53.963Z,1011.86
2018-08-28T04:56:53.996Z,1011.87
2018-08-28T04:57:54.020Z,1011.89
2018-08-28T04:58:54.049Z,1011.92
2018-08-28T04:59:54.074Z,1011.92
2018-08-28T05:00:54.107Z,1011.92
2018-08-28T05:01:54.137Z,1011.92
2018-08-28T05:02:54.166Z,1011.97
2018-08-28T05:03:54.194Z,1011.94
2018-08-28T05:04:54.221Z,1011.93
2018-08-28T05:05:54.249Z,1011.94
2018-08-28T05:06:54.282Z,1011.88
2018-08-28T05:07:54.306Z,1011.97
2018-08-28T05:08:54.340Z,1011.96
2018-08-28T05:09:54.368Z,1011.97
2018-08-28T05:10:54.397Z,1012.05
2018-08-28T05:11:54.513Z,1012.02
2018-08-28T05:12:54.455Z,1012.04
2018-08-28T05:13:54.484Z,1012.11
2018-08-28T05:14:54.510Z,1012.09
2018-08-28T05:15:54.581Z,1012.08
2018-08-28T05:16:54.566Z,1012.07
2018-08-28T05:17:54.593Z,1012.09
2018-08-28T05:18:54.622Z,1012.09
2018-08-28T05:19:54.652Z,1012.10
2018-08-28T05:20:54.680Z,1012.15
2018-08-28T05:21:54.709Z,1012.12
2018-08-28T05:22:54.740Z,1012.12
2018-08-28T05:23:54.767Z,1012.16
2018-08-28T05:24:54.800Z,1012.16
2018-08-28T05:25:54.828Z,1012.12
2018-08-28T05:26:54.855Z,1012.16
2018-08-28T05:27:54.882Z,1012.14
2018-08-28T05:28:54.913Z,1012.15
2018-08-28T05:29:54.943Z,1012.22
2018-08-28T05:30:54.968Z,1012.13
2018-08-28T05:31:55.001Z,1012.23
2018-08-28T05:32:55.028Z,1012.23
2018-08-28T05:33:55.056Z,1012.21
2018-08-28T05:34:55.086Z,1012.22
2018-08-28T05:35:55.115Z,1012.28
2018-08-28T05:36:55.143Z,1012.21
2018-08-28T05:37:55.202Z,1012.25
2018-08-28T05:38:55.202Z,1012.29
2018-08-28T05:39:55.229Z,1012.25
2018-08-28T05:40:55.260Z,1012.30
2018-08-28T05:41:55.290Z,1012.28
2018-08-28T05:42:55.316Z,1012.23
2018-08-28T05:43:55.346Z,1012.25
2018-08-28T05:44:55.373Z,1012.27
2018-08-28T05:45:55.403Z,1012.27
2018-08-28T05:46:55.433Z,1012.29
2018-08-28T05:47:55.461Z,1012.28
2018-08-28T05:48:55.492Z,1012.27
2018-08-28T05:49:55.517Z,1012.30
2018-08-28T05:50:55.543Z,1012.31
2018-08-28T05:51:55.577Z,1012.32
2018-08-28T05:52:55.606Z,1012.35
2018-08-28T05:53:55.633Z,1012.31
2018-08-28T05:54:55.665Z,1012.35
2018-08-28T05:55:55.842Z,1012.36
2018-08-28T05:56:55.719Z,1012.37
2018-08-28T05:57:55.747Z,1012.36
2018-08-28T05:58:55.778Z,1012.37
2018-08-28T05:59:55.810Z,1012.37
2018-08-28T06:00:55.836Z,1012.39
2018-08-28T06:01:55.860Z,1012.43
2018-08-28T06:02:55.954Z,1012.44
2018-08-28T06:03:55.918Z,1012.41
2018-08-28T06:04:55.949Z,1012.46
2018-08-28T06:05:55.981Z,1012.38
2018-08-28T06:06:56.009Z,1012.45
2018-08-28T06:07:56.034Z,1012.46
2018-08-28T06:08:56.121Z,1012.47
2018-08-28T06:09:56.094Z,1012.40
2018-08-28T06:10:56.122Z,1012.48
2018-08-28T06:11:56.154Z,1012.47
2018-08-28T06:12:56.181Z,1012.43
2018-08-28T06:13:56.209Z,1012.43
2018-08-28T06:14:56.241Z,1012.43
2018-08-28T06:15:56.266Z,1012.44
2018-08-28T06:16:56.295Z,1012.47
2018-08-28T06:17:56.325Z,1012.50
2018-08-28T06:18:56.352Z,1012.49
2018-08-28T06:19:56.386Z,1012.48
2018-08-28T06:20:56.410Z,1012.49
2018-08-28T06:21:56.439Z,1012.51
2018-08-28T06:22:56.491Z,1012.49
2018-08-28T06:23:56.499Z,1012.53
2018-08-28T06:24:56.528Z,1012.50
2018-08-28T06:25:56.557Z,1012.49
2018-08-28T06:26:56.585Z,1012.52
2018-08-28T06:27:56.615Z,1012.55
2018-08-28T06:28:56.641Z,1012.58
2018-08-28T06:29:56.672Z,1012.60
2018-08-28T06:30:56.699Z,1012.58
2018-08-28T06:31:56.730Z,1012.63
2018-08-28T06:32:56.761Z,1012.61
2018-08-28T06:33:56.791Z,1012.62
2018-08-28T06:34:56.817Z,1012.65
2018-08-28T06:35:56.847Z,1012.67
2018-08-28T06:36:56.877Z,1012.69
2018-08-28T06:37:56.907Z,1012.70
2018-08-28T06:38:56.934Z,1012.71
2018-08-28T06:39:56.960Z,1012.75
2018-08-28T06:40:56.993Z,1012.72
2018-08-28T06:41:57.018Z,1012.74
2018-08-28T06:42:57.049Z,1012.75
2018-08-28T06:43:57.130Z,1012.73
2018-08-28T06:44:57.104Z,1012.74
2018-08-28T06:45:57.135Z,1012.73
2018-08-28T06:46:57.165Z,1012.76
2018-08-28T06:47:57.192Z,1012.73
2018-08-28T06:48:57.224Z,1012.72
2018-08-28T06:49:57.253Z,1012.75
2018-08-28T06:50:57.278Z,1012.77
2018-08-28T06:51:57.311Z,1012.78
2018-08-28T06:52:57.340Z,1012.81
2018-08-28T06:53:57.365Z,1012.81
2018-08-28T06:54:57.397Z,1012.83
2018-08-28T06:55:57.423Z,1012.84
2018-08-28T06:56:57.520Z,1012.80
2018-08-28T06:57:57.482Z,1012.81
2018-08-28T06:58:57.510Z,1012.82
2018-08-28T06:59:57.545Z,1012.82
2018-08-28T07:00:57.573Z,1012.83
2018-08-28T07:01:57.597Z,1012.88
2018-08-28T07:02:57.632Z,1012.87
2018-08-28T07:03:57.719Z,1012.89
2018-08-28T07:04:57.689Z,1012.86
2018-08-28T07:05:57.721Z,1012.93
2018-08-28T07:06:57.745Z,1012.96
2018-08-28T07:07:57.799Z,1012.96
2018-08-28T07:08:57.807Z,1012.95
2018-08-28T07:09:57.832Z,1012.97
2018-08-28T07:10:57.859Z,1012.98
2018-08-28T07:11:57.890Z,1012.97
2018-08-28T07:12:57.922Z,1012.96
2018-08-28T07:13:57.950Z,1012.97
2018-08-28T07:14:57.975Z,1012.99
2018-08-28T07:15:58.007Z,1012.98
2018-08-28T07:16:58.039Z,1013.02
2018-08-28T07:17:58.064Z,1013.01
2018-08-28T07:18:58.093Z,1013.05
2018-08-28T07:19:58.122Z,1013.05
2018-08-28T07:20:58.154Z,1013.02
2018-08-28T07:21:58.181Z,1013.00
2018-08-28T07:22:58.213Z,1013.05
2018-08-28T07:23:58.239Z,1013.02
2018-08-28T07:24:58.269Z,1013.06
2018-08-28T07:25:58.311Z,1013.05
2018-08-28T07:26:58.330Z,1013.07
2018-08-28T07:27:58.358Z,1013.03
2018-08-28T07:28:58.390Z,1013.08
2018-08-28T07:29:58.418Z,1013.09
2018-08-28T07:30:58.448Z,1013.10
2018-08-28T07:31:58.478Z,1013.07
2018-08-28T07:32:58.504Z,1013.11
2018-08-28T07:33:58.536Z,1013.14
2018-08-28T07:34:58.564Z,1013.13
2018-08-28T07:35:58.596Z,1013.16
2018-08-28T07:36:58.621Z,1013.21
2018-08-28T07:37:58.650Z,1013.17
2018-08-28T07:38:58.680Z,1013.19
2018-08-28T07:39:58.712Z,1013.17
2018-08-28T07:40:58.743Z,1013.19
2018-08-28T07:41:58.771Z,1013.16
2018-08-28T07:42:58.888Z,1013.19
2018-08-28T07:43:58.831Z,1013.20
2018-08-28T07:44:58.860Z,1013.20
2018-08-28T07:45:58.887Z,1013.22
2018-08-28T07:46:58.916Z,1013.19
2018-08-28T07:47:58.947Z,1013.21
2018-08-28T07:48:58.981Z,1013.19
2018-08-28T07:49:59.003Z,1013.26
2018-08-28T07:50:59.033Z,1013.26
2018-08-28T07:51:59.065Z,1013.25
2018-08-28T07:52:59.094Z,1013.27
2018-08-28T07:53:59.173Z,1013.24
2018-08-28T07:54:59.154Z,1013.24
2018-08-28T07:55:59.183Z,1013.22
2018-08-28T07:56:59.213Z,1013.25
2018-08-28T07:57:59.242Z,1013.21
2018-08-28T07:58:59.271Z,1013.25
2018-08-28T07:59:59.301Z,1013.24
2018-08-28T08:00:59.337Z,1013.26
2018-08-28T08:01:59.362Z,1013.26
2018-08-28T08:02:59.391Z,1013.24
2018-08-28T08:03:59.424Z,1013.32
2018-08-28T08:04:59.451Z,1013.28
2018-08-28T08:05:59.480Z,1013.28
2018-08-28T08:06:59.507Z,1013.33
2018-08-28T08:07:59.540Z,1013.35
2018-08-28T08:08:59.569Z,1013.37
2018-08-28T08:09:59.599Z,1013.38
2018-08-28T08:10:59.629Z,1013.33
2018-08-28T08:11:59.659Z,1013.34
2018-08-28T08:12:59.690Z,1013.33
2018-08-28T08:13:59.715Z,1013.32
2018-08-28T08:14:59.748Z,1013.38
2018-08-28T08:15:59.797Z,1013.33
2018-08-28T08:16:59.805Z,1013.34
2018-08-28T08:17:59.840Z,1013.30
2018-08-28T08:18:59.867Z,1013.32
2018-08-28T08:19:59.904Z,1013.32
2018-08-28T08:20:59.928Z,1013.35
2018-08-28T08:21:59.976Z,1013.36
2018-08-28T08:22:59.990Z,1013.37
2018-08-28T08:24:00.018Z,1013.36
2018-08-28T08:25:00.052Z,1013.36
2018-08-28T08:26:00.078Z,1013.37
2018-08-28T08:27:00.108Z,1013.35
2018-08-28T08:28:00.189Z,1013.38
2018-08-28T08:29:00.168Z,1013.36
2018-08-28T08:30:00.199Z,1013.35
2018-08-28T08:31:00.230Z,1013.38
2018-08-28T08:32:00.259Z,1013.43
2018-08-28T08:33:00.291Z,1013.45
2018-08-28T08:34:00.322Z,1013.43
2018-08-28T08:35:00.352Z,1013.44
2018-08-28T08:36:00.434Z,1013.43
2018-08-28T08:37:00.412Z,1013.46
2018-08-28T08:38:00.444Z,1013.46
2018-08-28T08:39:00.475Z,1013.42
2018-08-28T08:40:00.505Z,1013.46
2018-08-28T08:41:00.539Z,1013.45
2018-08-28T08:42:00.573Z,1013.53
2018-08-28T08:43:00.597Z,1013.53
2018-08-28T08:44:00.693Z,1013.51
2018-08-28T08:45:00.689Z,1013.50
2018-08-28T08:46:00.692Z,1013.46
2018-08-28T08:47:00.773Z,1013.48
2018-08-28T08:48:00.757Z,1013.47
2018-08-28T08:49:00.786Z,1013.51
2018-08-28T08:50:00.815Z,1013.50
2018-08-28T08:51:00.849Z,1013.45
2018-08-28T08:52:00.880Z,1013.48
2018-08-28T08:53:00.914Z,1013.42
2018-08-28T08:54:00.941Z,1013.45
2018-08-28T08:55:01.130Z,1013.43
2018-08-28T08:56:01.004Z,1013.44
2018-08-28T08:57:01.037Z,1013.41
2018-08-28T08:58:01.072Z,1013.44
2018-08-28T08:59:01.197Z,1013.38
2018-08-28T09:00:01.134Z,1013.43
2018-08-28T09:01:01.215Z,1013.40
2018-08-28T09:02:01.195Z,1013.43
2018-08-28T09:03:01.227Z,1013.40
2018-08-28T09:04:01.260Z,1013.41
2018-08-28T09:05:01.294Z,1013.40
2018-08-28T09:06:01.383Z,1013.42
2018-08-28T09:07:01.356Z,1013.40
2018-08-28T09:08:01.393Z,1013.40
2018-08-28T09:09:01.421Z,1013.42
2018-08-28T09:10:01.453Z,1013.40
2018-08-28T09:11:01.486Z,1013.40
2018-08-28T09:12:01.559Z,1013.38
2018-08-28T09:13:01.551Z,1013.35
2018-08-28T09:14:01.587Z,1013.37
2018-08-28T09:15:01.614Z,1013.34
2018-08-28T09:16:01.645Z,1013.33
2018-08-28T09:17:01.681Z,1013.31
2018-08-28T09:18:01.713Z,1013.32
2018-08-28T09:19:01.741Z,1013.35
2018-08-28T09:20:01.784Z,1013.32
2018-08-28T09:21:01.816Z,1013.29
2018-08-28T09:22:01.838Z,1013.25
2018-08-28T09:23:01.875Z,1013.25
2018-08-28T09:24:01.957Z,1013.27
2018-08-28T09:25:01.938Z,1013.23
2018-08-28T09:26:01.969Z,1013.24
2018-08-28T09:27:02.001Z,1013.26
2018-08-28T09:28:02.036Z,1013.24
2018-08-28T09:29:02.070Z,1013.26
2018-08-28T09:30:02.097Z,1013.26
2018-08-28T09:31:02.133Z,1013.22
2018-08-28T09:32:02.164Z,1013.24
2018-08-28T09:33:02.194Z,1013.24
2018-08-28T09:34:02.229Z,1013.20
2018-08-28T09:35:02.262Z,1013.22
2018-08-28T09:36:02.291Z,1013.21
2018-08-28T09:37:02.321Z,1013.16
2018-08-28T09:38:02.355Z,1013.25
2018-08-28T09:39:02.387Z,1013.20
2018-08-28T09:40:02.420Z,1013.21
2018-08-28T09:41:02.449Z,1013.23
2018-08-28T09:42:02.481Z,1013.25
2018-08-28T09:43:02.514Z,1013.24
2018-08-28T09:44:02.558Z,1013.19
2018-08-28T09:45:02.578Z,1013.22
2018-08-28T09:46:02.611Z,1013.19
2018-08-28T09:47:02.641Z,1013.23
2018-08-28T09:48:02.745Z,1013.22
2018-08-28T09:49:02.706Z,1013.22
2018-08-28T09:50:02.737Z,1013.20
2018-08-28T09:51:02.853Z,1013.21
2018-08-28T09:52:02.800Z,1013.18
2018-08-28T09:53:02.835Z,1013.19
2018-08-28T09:54:02.864Z,1013.23
2018-08-28T09:55:02.953Z,1013.21
2018-08-28T09:56:02.930Z,1013.19
2018-08-28T09:57:02.959Z,1013.23
2018-08-28T09:58:02.992Z,1013.24
2018-08-28T09:59:03.024Z,1013.28
2018-08-28T10:00:03.057Z,1013.23
2018-08-28T10:01:03.087Z,1013.21
2018-08-28T10:02:03.122Z,1013.24
2018-08-28T10:03:03.151Z,1013.21
2018-08-28T10:04:03.183Z,1013.23
2018-08-28T10:05:03.215Z,1013.17
2018-08-28T10:06:03.245Z,1013.15
2018-08-28T10:07:03.280Z,1013.21
2018-08-28T10:08:03.313Z,1013.20
2018-08-28T10:09:03.345Z,1013.17
2018-08-28T10:10:03.372Z,1013.17
2018-08-28T10:11:03.574Z,1013.18
2018-08-28T10:12:03.435Z,1013.16
2018-08-28T10:13:03.468Z,1013.13
2018-08-28T10:14:03.500Z,1013.11
2018-08-28T10:15:03.531Z,1013.09
2018-08-28T10:16:03.562Z,1013.18
2018-08-28T10:17:03.589Z,1013.14
2018-08-28T10:18:03.620Z,1013.16
2018-08-28T10:19:03.654Z,1013.15
2018-08-28T10:20:03.688Z,1013.18
2018-08-28T10:21:03.719Z,1013.17
2018-08-28T10:22:03.748Z,1013.17
2018-08-28T10:23:03.776Z,1013.17
2018-08-28T10:24:03.812Z,1013.18
2018-08-28T10:25:03.848Z,1013.17
2018-08-28T10:26:03.872Z,1013.15
2018-08-28T10:27:03.902Z,1013.19
2018-08-28T10:28:03.932Z,1013.16
2018-08-28T10:29:03.966Z,1013.07
2018-08-28T10:30:03.997Z,1013.14
2018-08-28T10:31:04.028Z,1013.13
2018-08-28T10:32:04.061Z,1013.13
2018-08-28T10:33:04.090Z,1013.14
2018-08-28T10:34:04.123Z,1013.16
2018-08-28T10:35:04.149Z,1013.15
2018-08-28T10:36:04.182Z,1013.16
2018-08-28T10:37:04.215Z,1013.15
2018-08-28T10:38:04.296Z,1013.15
2018-08-28T10:39:04.279Z,1013.15
2018-08-28T10:40:04.305Z,1013.16
2018-08-28T10:41:04.337Z,1013.12
2018-08-28T10:42:04.369Z,1013.12
2018-08-28T10:43:04.398Z,1013.11
2018-08-28T10:44:04.431Z,1013.18
2018-08-28T10:45:04.466Z,1013.16
2018-08-28T10:46:04.569Z,1013.17
2018-08-28T10:47:04.521Z,1013.20
2018-08-28T10:48:04.556Z,1013.19
2018-08-28T10:49:04.590Z,1013.16
2018-08-28T10:50:04.617Z,1013.19
2018-08-28T10:51:04.644Z,1013.17
2018-08-28T10:52:04.681Z,1013.20
2018-08-28T10:53:04.712Z,1013.22
2018-08-28T10:54:04.739Z,1013.17
2018-08-28T10:55:04.770Z,1013.12
2018-08-28T10:56:04.799Z,1013.20
2018-08-28T10:57:04.829Z,1013.19
2018-08-28T10:58:04.861Z,1013.17
2018-08-28T10:59:04.892Z,1013.23
2018-08-28T11:00:04.923Z,1013.20
2018-08-28T11:01:04.957Z,1013.21
2018-08-28T11:02:04.986Z,1013.20
2018-08-28T11:03:05.013Z,1013.24
2018-08-28T11:04:05.047Z,1013.23
2018-08-28T11:05:05.077Z,1013.19
2018-08-28T11:06:05.111Z,1013.21
2018-08-28T11:07:05.138Z,1013.24
2018-08-28T11:08:05.170Z,1013.27
2018-08-28T11:09:05.199Z,1013.27
2018-08-28T11:10:05.229Z,1013.28
2018-08-28T11:11:05.261Z,1013.31
2018-08-28T11:12:05.295Z,1013.25
2018-08-28T11:13:05.323Z,1013.28
2018-08-28T11:14:05.357Z,1013.28
2018-08-28T11:15:05.386Z,1013.28
2018-08-28T11:16:05.439Z,1013.28
2018-08-28T11:17:05.447Z,1013.28
2018-08-28T11:18:05.480Z,1013.33
2018-08-28T11:19:05.511Z,1013.34
2018-08-28T11:20:05.543Z,1013.39
2018-08-28T11:21:05.571Z,1013.39
2018-08-28T11:22:05.607Z,1013.41
2018-08-28T11:23:05.638Z,1013.35
2018-08-28T11:24:05.665Z,1013.42
2018-08-28T11:25:05.695Z,1013.43
2018-08-28T11:26:05.727Z,1013.38
2018-08-28T11:27:05.761Z,1013.42
2018-08-28T11:28:05.790Z,1013.40
2018-08-28T11:29:05.822Z,1013.40
2018-08-28T11:30:05.856Z,1013.41
2018-08-28T11:31:05.881Z,1013.44
2018-08-28T11:32:05.916Z,1013.40
2018-08-28T11:33:05.948Z,1013.40
2018-08-28T11:34:05.981Z,1013.49
2018-08-28T11:35:06.013Z,1013.50
2018-08-28T11:36:06.044Z,1013.51
2018-08-28T11:37:06.077Z,1013.49
2018-08-28T11:38:06.107Z,1013.72
2018-08-28T11:39:06.144Z,1013.69
2018-08-28T11:40:06.176Z,1013.70
2018-08-28T11:41:06.205Z,1013.97
2018-08-28T11:42:06.241Z,1014.01
2018-08-28T11:43:06.273Z,1013.47
2018-08-28T11:44:06.304Z,1013.68
2018-08-28T11:45:06.342Z,1013.96
2018-08-28T11:46:06.373Z,1014.01
2018-08-28T11:47:06.463Z,1014.04
2018-08-28T11:48:06.439Z,1014.01
2018-08-28T11:49:06.478Z,1013.99
2018-08-28T11:50:06.507Z,1013.96
2018-08-28T11:51:06.541Z,1013.92
2018-08-28T11:52:06.579Z,1013.89
2018-08-28T11:53:06.616Z,1013.89
2018-08-28T11:54:06.649Z,1013.91
2018-08-28T11:55:06.687Z,1013.89
2018-08-28T11:56:06.719Z,1013.85
2018-08-28T11:57:06.760Z,1013.90
2018-08-28T11:58:06.794Z,1013.86
2018-08-28T11:59:06.827Z,1013.85
2018-08-28T12:00:06.866Z,1013.79
2018-08-28T12:01:06.905Z,1013.82
2018-08-28T12:02:07.062Z,1013.89
2018-08-28T12:03:06.974Z,1013.91
2018-08-28T12:04:07.018Z,1013.92
2018-08-28T12:05:07.226Z,1013.95
2018-08-28T12:06:07.092Z,1013.97